Data for 09/03/2014

Time Sea-Level Adjusted Pressure Absolute Pressure Temperature Relative Humidity Dew Point   
(mb) (inHg) (mb) (inHg) (C) (F) (%) (C) (F)
00:05 1010 29.83 839 24.78 13.8 56.9 39 0.1 32.1
00:10 1010 29.83 839 24.78 13.6 56.6 39 0.2 32.3
00:15 1010 29.83 839 24.78 13.3 56 43 1 33.7
00:20 1010 29.83 839 24.78 13.1 55.5 42 0.7 33.2
00:25 1010 29.83 839 24.78 13.1 55.6 42 0.5 32.9
00:30 1010 29.83 839 24.78 13.3 56 39 -0.1 31.8
00:35 1010 29.83 839 24.78 13.4 56.2 39 -0.1 31.8
00:40 1010 29.83 839 24.78 13.2 55.7 43 0.8 33.5
00:45 1010 29.83 839 24.78 12.6 54.7 43 0.3 32.6
00:50 1010 29.83 839 24.78 12.2 54 47 1.2 34.2
00:55 1010 29.83 839 24.78 11.7 53.1 46 0.4 32.7
01:00 1010 29.83 839 24.78 11.7 53 45 0.2 32.4
01:05 1010 29.83 839 24.78 12.1 53.7 42 -0.4 31.4
01:10 1010 29.83 839 24.78 12.6 54.6 41 -0.4 31.3
01:15 1010 29.83 839 24.78 12.7 54.8 43 0.3 32.6
01:20 1010 29.83 839 24.78 12.6 54.6 44 0.9 33.5
01:25 1010 29.83 839 24.78 12.2 53.9 43 0.1 32.1
01:30 1010 29.83 839 24.78 12.6 54.7 44 0.6 33.1
01:35 1010 29.83 839 24.78 12.4 54.3 44 0.4 32.8
01:40 1010 29.83 839 24.78 11.8 53.3 45 0.2 32.4
01:45 1010 29.83 839 24.78 12 53.6 42 -0.3 31.4
01:50 1010 29.83 839 24.78 12.2 53.9 42 -0.4 31.3
01:55 1010 29.83 839 24.78 12.3 54.2 40 -0.7 30.7
02:00 1010 29.83 839 24.78 12.3 54.2 43 0.2 32.4
02:05 1010 29.83 839 24.78 11.9 53.3 42 -0.5 31.2
02:10 1009 29.8 839 24.78 12.1 53.9 41 -0.7 30.7
02:15 1009 29.8 839 24.78 12.8 55 40 -0.4 31.2
02:20 1009 29.8 839 24.78 12.2 53.9 46 0.9 33.7
02:25 1009 29.8 839 24.78 11.1 51.9 49 0.9 33.5
02:30 1009 29.8 838 24.75 11 51.7 45 -0.3 31.4
02:35 1009 29.8 838 24.75 11.4 52.5 46 0.4 32.7
02:40 1009 29.8 838 24.75 11.2 52.2 45 -0.1 31.9
02:45 1009 29.8 838 24.75 11.4 52.6 45 -0.1 31.7
02:50 1009 29.8 838 24.75 11.4 52.6 45 0.1 32.1
02:55 1009 29.8 838 24.75 11.4 52.5 45 -0.2 31.6
03:00 1009 29.8 838 24.75 11.5 52.7 45 -0.1 31.9
03:05 1009 29.8 838 24.75 11.5 52.7 44 -0.3 31.4
03:10 1009 29.8 838 24.75 11.8 53.3 42 -0.6 30.9
03:15 1009 29.8 838 24.75 11.9 53.5 42 -0.5 31.1
03:20 1009 29.8 838 24.75 11.9 53.4 43 -0.4 31.3
03:25 1009 29.8 838 24.75 11.9 53.5 42 -0.6 30.9
03:30 1009 29.8 838 24.75 12 53.6 42 -0.6 30.9
03:35 1008 29.77 838 24.75 11.9 53.4 44 -0.1 31.9
03:40 1008 29.77 838 24.75 11.3 52.3 47 0.4 32.7
03:45 1008 29.77 838 24.75 10.9 51.6 46 -0.4 31.4
03:50 1008 29.77 838 24.75 11.2 52.1 43 -0.8 30.6
03:55 1008 29.77 838 24.75 11.8 53.2 41 -0.9 30.3
04:00 1008 29.77 838 24.75 12 53.5 40 -1.1 30.1
04:05 1008 29.77 837 24.72 12.3 54.1 39 -1 30.1
04:10 1008 29.77 837 24.72 12.3 54.2 39 -1.1 30.1
04:15 1008 29.77 837 24.72 12.1 53.8 42 -0.2 31.6
04:20 1008 29.77 837 24.72 11.4 52.6 43 -0.7 30.8
04:25 1008 29.77 837 24.72 11.4 52.4 44 -0.6 31
04:30 1008 29.77 837 24.72 11.4 52.4 44 -0.4 31.3
04:35 1008 29.77 837 24.72 11.2 52.2 43 -0.7 30.7
04:40 1008 29.77 837 24.72 11.1 52 43 -0.8 30.5
04:45 1008 29.77 837 24.72 11.4 52.4 42 -1.2 29.9
04:50 1008 29.77 837 24.72 11.9 53.4 38 -1.9 28.6
04:55 1008 29.77 837 24.72 12.2 54 38 -1.7 29
05:00 1008 29.77 837 24.72 12.2 53.9 39 -1.3 29.6
05:05 1008 29.77 837 24.72 12.1 53.8 37 -1.9 28.5
05:10 1008 29.77 837 24.72 12.5 54.5 35 -2.3 27.8
05:15 1008 29.77 837 24.72 12.5 54.6 37 -1.5 29.3
05:20 1008 29.77 837 24.72 12.2 53.9 38 -1.5 29.3
05:25 1008 29.77 837 24.72 12.2 53.9 39 -1.4 29.4
05:30 1008 29.77 837 24.72 12.2 54 37 -1.9 28.5
05:35 1008 29.77 837 24.72 12.8 55 36 -1.9 28.7
05:40 1008 29.77 837 24.72 12.7 54.9 37 -1.7 29
05:45 1008 29.77 837 24.72 12.4 54.3 38 -1.4 29.5
05:50 1008 29.77 837 24.72 12.2 53.9 39 -1.4 29.5
05:55 1008 29.77 837 24.72 12.1 53.8 37 -2.1 28.2
06:00 1008 29.77 837 24.72 12.3 54.1 38 -1.4 29.4
06:05 1008 29.77 837 24.72 12.2 53.9 38 -1.7 29
06:10 1008 29.77 837 24.72 12.1 53.9 39 -1.2 29.8
06:15 1008 29.77 837 24.72 11.9 53.5 40 -1.2 29.8
06:20 1008 29.77 837 24.72 11.9 53.5 40 -1.3 29.7
06:25 1008 29.77 837 24.72 12.1 53.8 37 -1.9 28.5
06:30 1008 29.77 838 24.75 12.5 54.5 36 -1.9 28.5
06:35 1008 29.77 838 24.75 12.8 55.1 40 -0.5 31.1
06:40 1008 29.77 838 24.75 12.8 55.1 45 1.3 34.3
06:45 1008 29.77 838 24.75 12.1 53.7 46 0.9 33.5
06:50 1009 29.8 838 24.75 11.7 53.1 44 -0.1 31.8
06:55 1009 29.8 838 24.75 11.4 52.5 47 0.7 33.2
07:00 1009 29.8 838 24.75 11.6 52.8 49 1.2 34.1
07:05 1009 29.8 838 24.75 11.7 53.1 47 0.9 33.6
07:10 1009 29.8 838 24.75 12.5 54.4 43 0.4 32.7
07:15 1009 29.8 838 24.75 13.2 55.7 43 0.9 33.6
07:20 1009 29.8 838 24.75 13.8 56.8 40 0.4 32.8
07:25 1009 29.8 838 24.75 14 57.2 42 1.4 34.4
07:30 1009 29.8 839 24.78 13.8 56.8 41 0.8 33.5
07:35 1010 29.83 839 24.78 13.6 56.5 44 1.8 35.2
07:40 1010 29.83 839 24.78 13.2 55.8 48 2.4 36.3
07:45 1010 29.83 839 24.78 12.7 54.9 47 1.9 35.4
07:50 1010 29.83 839 24.78 12.8 55 49 2.3 36.2
07:55 1010 29.83 839 24.78 12.8 55 49 2.5 36.6
08:00 1010 29.83 839 24.78 12.8 55 50 2.6 36.7
08:05 1010 29.83 839 24.78 12.9 55.3 49 2.6 36.6
08:10 1010 29.83 839 24.78 13.3 56 48 2.7 36.9
08:15 1010 29.83 839 24.78 13.5 56.3 48 2.7 36.8
08:20 1010 29.83 839 24.78 13.8 56.9 45 2.2 36
08:25 1010 29.83 839 24.78 14.2 57.5 44 2.3 36.1
08:30 1010 29.83 839 24.78 14.6 58.3 45 2.9 37.1
08:35 1010 29.83 840 24.81 14.9 58.9 43 2.4 36.3
08:40 1010 29.83 840 24.81 15.5 59.9 43 3 37.3
08:45 1011 29.85 840 24.81 15.6 60.1 40 2.3 36.1
08:50 1011 29.85 840 24.81 15.4 59.8 41 2.2 36
08:55 1011 29.85 840 24.81 15.6 60.1 42 2.7 36.9
09:00 1011 29.85 840 24.81 15.7 60.2 41 2.7 36.8
09:05 1011 29.85 840 24.81 16 60.9 40 2.7 36.8
09:10 1011 29.85 840 24.81 16.4 61.5 40 2.7 36.9
09:15 1011 29.85 840 24.81 16.8 62.3 39 3.1 37.5
09:20 1011 29.85 840 24.81 17.2 62.9 40 3.4 38.1
09:25 1011 29.85 840 24.81 17.2 62.9 38 3 37.3
09:30 1011 29.85 840 24.81 17.5 63.4 40 3.8 38.8
09:35 1011 29.85 840 24.81 17.4 63.3 40 3.7 38.6
09:40 1011 29.85 840 24.81 17.3 63.1 40 3.8 38.8
09:45 1011 29.85 840 24.81 17.4 63.2 40 3.6 38.5
09:50 1011 29.85 840 24.81 17.6 63.8 40 4.1 39.3
09:55 1011 29.85 840 24.81 17 62.7 41 3.8 38.8
10:00 1011 29.85 841 24.83 16.8 62.2 42 4 39.1
10:05 1011 29.85 841 24.83 17.5 63.4 39 3.3 38
10:10 1011 29.85 841 24.83 17.7 63.8 37 2.9 37.1
10:15 1011 29.85 841 24.83 17.7 63.8 38 3.3 37.9
10:20 1011 29.85 841 24.83 18.6 65.5 35 3 37.4
10:25 1011 29.85 841 24.83 18.9 66.1 33 2.5 36.6
10:30 1011 29.85 841 24.83 18.8 65.9 32 1.9 35.5
10:35 1011 29.85 841 24.83 18.9 66 32 2 35.6
10:40 1012 29.88 841 24.83 18.5 65.3 34 2.4 36.3
10:45 1012 29.88 841 24.83 18.9 66.1 33 2.5 36.6
10:50 1012 29.88 841 24.83 19.6 67.3 32 2.6 36.7
10:55 1012 29.88 841 24.83 19.7 67.4 31 2.3 36.2
11:00 1012 29.88 841 24.83 19.2 66.5 33 2.5 36.5
11:05 1012 29.88 841 24.83 18.7 65.7 33 2.3 36.1
11:10 1012 29.88 841 24.83 19.1 66.4 32 2.2 35.9
11:15 1012 29.88 841 24.83 19.2 66.6 33 2.9 37.2
11:20 1012 29.88 841 24.83 19.4 66.9 32 2.4 36.4
11:25 1012 29.88 841 24.83 19.5 67.2 31 2.1 35.8
11:30 1012 29.88 841 24.83 19.6 67.3 31 2.1 35.8
11:35 1012 29.88 841 24.83 19.5 67.2 31 2.2 35.9
11:40 1012 29.88 841 24.83 19.4 66.9 30 1.7 35
11:45 1012 29.88 841 24.83 19.5 67.2 31 1.9 35.5
11:50 1012 29.88 841 24.83 19.6 67.3 31 2.2 36
11:55 1012 29.88 841 24.83 19.5 67.2 31 2.2 35.9
12:00 1012 29.88 841 24.83 19.3 66.7 32 2.2 35.9
12:05 1012 29.88 841 24.83 20.3 68.5 29 1.9 35.4
12:10 1012 29.88 841 24.83 20 68.1 32 3.1 37.6
12:15 1012 29.88 841 24.83 19.2 66.6 34 3 37.4
12:20 1012 29.88 841 24.83 18.9 66 37 3.9 39.1
12:25 1012 29.88 841 24.83 18.1 64.5 37 3.4 38.1
12:30 1012 29.88 841 24.83 17.9 64.2 38 3.4 38.1
12:35 1012 29.88 841 24.83 18.2 64.8 36 3.2 37.8
12:40 1012 29.88 841 24.83 18 64.3 38 3.7 38.7
12:45 1012 29.88 841 24.83 18.2 64.8 35 2.7 36.8
12:50 1012 29.88 841 24.83 18 64.4 37 3.2 37.8
12:55 1012 29.88 842 24.86 17.8 64 34 1.8 35.2
13:00 1012 29.88 842 24.86 17.9 64.2 32 1.3 34.4
13:05 1013 29.91 842 24.86 17.7 63.8 33 1.2 34.2
13:10 1013 29.91 842 24.86 17.6 63.6 33 1.2 34.1
13:15 1013 29.91 842 24.86 17.9 64.2 34 1.9 35.4
13:20 1013 29.91 842 24.86 18.2 64.7 32 1.4 34.5
13:25 1013 29.91 842 24.86 17.7 63.9 32 1.2 34.1
13:30 1013 29.91 842 24.86 17.7 63.9 33 1.6 34.9
13:35 1013 29.91 842 24.86 18 64.4 34 1.9 35.5
13:40 1013 29.91 842 24.86 17.9 64.2 33 1.4 34.6
13:45 1013 29.91 842 24.86 17.8 64 31 0.5 32.9
13:50 1013 29.91 842 24.86 18.6 65.6 27 -0.5 31.1
13:55 1013 29.91 842 24.86 19.1 66.4 27 -0.1 31.9
14:00 1013 29.91 843 24.89 18.6 65.5 29 0.4 32.8
14:05 1013 29.91 843 24.89 18.7 65.6 28 -0 31.9
14:10 1013 29.91 843 24.89 18.6 65.5 29 0.4 32.7
14:15 1013 29.91 843 24.89 18.4 65.2 28 -0.4 31.4
14:20 1014 29.94 843 24.89 18.1 64.6 29 -0.1 31.9
14:25 1014 29.94 843 24.89 17.9 64.1 31 0.5 32.9
14:30 1014 29.94 843 24.89 17.2 63 32 0.3 32.6
14:35 1014 29.94 843 24.89 16.4 61.5 33 0.1 32.2
14:40 1014 29.94 843 24.89 17 62.7 31 -0.3 31.5
14:45 1014 29.94 843 24.89 17.3 63.1 31 0.1 32.2
14:50 1014 29.94 843 24.89 17.3 63.1 30 -0.2 31.6
14:55 1014 29.94 843 24.89 16.9 62.4 30 -0.7 30.7
15:00 1014 29.94 843 24.89 16.2 61.1 31 -1 30.1
15:05 1014 29.94 843 24.89 16.1 61 30 -1.5 29.2
15:10 1014 29.94 843 24.89 16.8 62.3 28 -1.5 29.3
15:15 1014 29.94 843 24.89 17 62.6 26 -2.7 27.2
15:20 1014 29.94 843 24.89 16.9 62.4 25 -3.3 26.1
15:25 1014 29.94 843 24.89 16.9 62.5 23 -4.1 24.6
15:30 1014 29.94 843 24.89 17 62.5 24 -3.5 25.6
15:35 1014 29.94 844 24.92 16.9 62.5 24 -3.6 25.4
15:40 1014 29.94 844 24.92 16.7 62.1 24 -3.8 25.2
15:45 1014 29.94 844 24.92 16.9 62.4 24 -3.7 25.4
15:50 1014 29.94 844 24.92 16.9 62.4 24 -3.8 25.1
15:55 1014 29.94 844 24.92 17 62.6 23 -4 24.8
16:00 1014 29.94 844 24.92 17 62.5 22 -4.7 23.5
16:05 1014 29.94 844 24.92 17 62.6 22 -4.7 23.5
16:10 1014 29.94 844 24.92 17 62.7 23 -4.2 24.4
16:15 1015 29.97 844 24.92 17.2 63 23 -3.7 25.3
16:20 1015 29.97 844 24.92 17.1 62.8 23 -4 24.8
16:25 1015 29.97 844 24.92 17 62.6 23 -4.4 24.2
16:30 1015 29.97 844 24.92 17 62.6 22 -4.8 23.4
16:35 1015 29.97 844 24.92 17.1 62.8 23 -4.2 24.4
16:40 1015 29.97 844 24.92 17.2 63 23 -3.8 25.2
16:45 1015 29.97 844 24.92 17.1 62.7 24 -3.7 25.3
16:50 1015 29.97 844 24.92 17 62.7 22 -4.5 23.9
16:55 1015 29.97 844 24.92 17.4 63.2 21 -4.9 23.1
17:00 1015 29.97 844 24.92 17.3 63.2 22 -4.3 24.2
17:05 1015 29.97 844 24.92 17.2 62.9 22 -4.4 24
17:10 1015 29.97 844 24.92 17.2 63 21 -5 23
17:15 1015 29.97 844 24.92 17 62.6 22 -4.5 23.9
17:20 1015 29.97 844 24.92 16.7 62.1 23 -4.5 23.9
17:25 1015 29.97 844 24.92 16.3 61.4 24 -4.1 24.7
17:30 1015 29.97 844 24.92 15.8 60.4 27 -3.2 26.2
17:35 1015 29.97 845 24.95 15.7 60.3 27 -3 26.6
17:40 1015 29.97 845 24.95 15.4 59.8 28 -2.9 26.8
17:45 1015 29.97 845 24.95 15.3 59.6 28 -3.2 26.2
17:50 1016 30 845 24.95 15.1 59.3 28 -3.2 26.3
17:55 1016 30 845 24.95 15 59 28 -3.4 25.8
18:00 1016 30 845 24.95 15 58.9 28 -3.2 26.2
18:05 1016 30 845 24.95 15 58.9 28 -3.5 25.7
18:10 1016 30 845 24.95 14.9 58.7 28 -3.2 26.2
18:15 1016 30 845 24.95 14.8 58.6 29 -3 26.7
18:20 1016 30 845 24.95 14.8 58.6 29 -2.9 26.8
18:25 1016 30 845 24.95 14.7 58.5 30 -2.8 27
18:30 1016 30 845 24.95 14.6 58.2 30 -2.6 27.4
18:35 1016 30 845 24.95 14.4 57.8 31 -2.5 27.5
18:40 1016 30 845 24.95 14.2 57.6 31 -2.8 27
18:45 1016 30 845 24.95 13.9 57 32 -2.6 27.2
18:50 1016 30 846 24.98 13.8 56.8 31 -2.8 26.9
18:55 1017 30.03 846 24.98 13.6 56.5 32 -2.7 27.2
19:00 1017 30.03 846 24.98 13.5 56.3 32 -2.8 27
19:05 1017 30.03 846 24.98 13.4 56.2 33 -2.6 27.3
19:10 1017 30.03 846 24.98 13.3 55.9 33 -2.6 27.2
19:15 1017 30.03 846 24.98 13.3 55.9 34 -2.4 27.7
19:20 1017 30.03 846 24.98 13.1 55.7 34 -2.4 27.7
19:25 1017 30.03 846 24.98 13 55.4 34 -2.3 27.8
19:30 1017 30.03 846 24.98 12.9 55.1 35 -2.2 28
19:35 1017 30.03 846 24.98 12.8 55 36 -2 28.4
19:40 1017 30.03 847 25.01 12.6 54.7 37 -1.7 28.9
19:45 1018 30.06 847 25.01 12.4 54.4 38 -1.5 29.3
19:50 1018 30.06 847 25.01 12.2 54 39 -1.3 29.6
19:55 1018 30.06 847 25.01 12.1 53.7 40 -1.2 29.8
20:00 1018 30.06 847 25.01 12 53.5 40 -1.2 29.8
20:05 1018 30.06 847 25.01 12 53.5 40 -1.1 30
20:10 1018 30.06 847 25.01 11.9 53.4 40 -1.2 29.9
20:15 1018 30.06 847 25.01 11.9 53.3 41 -1 30.2
20:20 1018 30.06 847 25.01 11.8 53.2 41 -1 30.1
20:25 1018 30.06 848 25.04 11.7 53 41 -1.1 30.1
20:30 1018 30.06 848 25.04 11.6 52.8 41 -1.2 29.8
20:35 1019 30.09 848 25.04 11.5 52.6 42 -1 30.2
20:40 1019 30.09 848 25.04 11.3 52.3 42 -1 30.3
20:45 1019 30.09 848 25.04 11.2 52.1 43 -0.9 30.4
20:50 1019 30.09 848 25.04 11.1 51.9 44 -0.7 30.7
20:55 1019 30.09 848 25.04 10.9 51.6 45 -0.6 30.9
21:00 1019 30.09 848 25.04 10.8 51.4 45 -0.6 31
21:05 1019 30.09 848 25.04 10.7 51.3 45 -0.8 30.5
21:10 1019 30.09 848 25.04 10.8 51.4 45 -0.7 30.8
21:15 1019 30.09 848 25.04 10.8 51.4 45 -0.7 30.7
21:20 1019 30.09 848 25.04 10.8 51.5 45 -0.6 31
21:25 1019 30.09 848 25.04 10.8 51.5 45 -0.6 30.9
21:30 1019 30.09 849 25.07 10.7 51.3 46 -0.5 31.1
21:35 1019 30.09 849 25.07 10.7 51.3 46 -0.5 31.1
21:40 1019 30.09 849 25.07 10.7 51.2 46 -0.5 31.2
21:45 1019 30.09 849 25.07 10.7 51.2 46 -0.6 31
21:50 1020 30.12 849 25.07 10.6 51.1 46 -0.4 31.2
21:55 1020 30.12 849 25.07 10.5 50.9 47 -0.3 31.4
22:00 1020 30.12 849 25.07 10.4 50.7 48 -0.2 31.6
22:05 1020 30.12 849 25.07 10.2 50.4 48 -0.2 31.7
22:10 1020 30.12 849 25.07 10.1 50.2 49 -0.1 31.9
22:15 1020 30.12 849 25.07 10.1 50.1 50 0.1 32.2
22:20 1020 30.12 849 25.07 9.9 49.9 50 -0.1 31.8
22:25 1020 30.12 849 25.07 9.8 49.7 50 -0.1 31.9
22:30 1020 30.12 849 25.07 9.7 49.5 50 -0.1 31.8
22:35 1020 30.12 849 25.07 9.7 49.5 51 -0 32
22:40 1020 30.12 849 25.07 9.7 49.5 50 -0.2 31.6
22:45 1020 30.12 849 25.07 9.7 49.5 50 -0.2 31.6
22:50 1020 30.12 849 25.07 9.7 49.5 51 0 32
22:55 1020 30.12 849 25.07 9.7 49.4 52 0.3 32.5
23:00 1020 30.12 849 25.07 9.5 49.2 52 0.1 32.2
23:05 1020 30.12 849 25.07 9.4 49 53 0.3 32.5
23:10 1020 30.12 849 25.07 9.4 48.8 54 0.5 33
23:15 1020 30.12 849 25.07 9.1 48.3 55 0.6 33.1
23:20 1020 30.12 849 25.07 8.8 47.9 56 0.4 32.8
23:25 1020 30.12 849 25.07 8.7 47.7 55 0.3 32.6
23:30 1020 30.12 849 25.07 8.8 47.8 56 0.4 32.7
23:35 1020 30.12 850 25.1 8.7 47.6 56 0.3 32.6
23:40 1020 30.12 850 25.1 8.7 47.6 55 0.1 32.2
23:45 1020 30.12 850 25.1 8.6 47.4 56 0.4 32.7
23:50 1020 30.12 850 25.1 8.2 46.8 58 0.4 32.7
23:55 1020 30.12 850 25.1 8 46.5 58 0.3 32.5
24:00 1020 30.12 850 25.1 7.9 46.3 58 0.1 32.3